Terminal Aerodrome Forecast
Issued by NWS

Home | Current Version | Previous Version | Text Only | Print | Product List | Glossary On
Versions: 1 2 3 4 5 6 7 8 9 10 11 12 13 14 15 16 17 18 19 20
145
FTUS46 KPQR 221120
TAFONP
TAF
KONP 221120Z 2212/2312 30003KT 2SM BR BKN008 OVC011
      TEMPO 2212/2216 5SM BR OVC011
     FM221600 30006KT 6SM BR OVC012=

USA.gov is the U.S. government's official web portal to all federal, state and local government web resources and services.